createdAt,value
2018-02-11T00:00:45.085Z,86.10
2018-02-11T00:03:11.709Z,86.10
2018-02-11T00:05:58.560Z,86.20
2018-02-11T00:08:25.338Z,86.20
2018-02-11T00:10:51.929Z,86.00
2018-02-11T00:13:18.604Z,86.10
2018-02-11T00:15:45.312Z,86.10
2018-02-11T00:18:11.905Z,86.10
2018-02-11T00:20:38.543Z,85.90
2018-02-11T00:23:10.366Z,86.00
2018-02-11T00:25:37.001Z,86.00
2018-02-11T00:28:03.701Z,86.00
2018-02-11T00:30:30.277Z,85.70
2018-02-11T00:32:56.918Z,85.60
2018-02-11T00:35:23.985Z,85.60
2018-02-11T00:37:56.676Z,85.50
2018-02-11T00:40:23.276Z,85.60
2018-02-11T00:42:49.900Z,85.80
2018-02-11T00:45:16.499Z,85.60
2018-02-11T00:47:43.077Z,85.30
2018-02-11T00:50:09.725Z,85.40
2018-02-11T00:52:36.721Z,85.30
2018-02-11T00:55:03.315Z,85.20
2018-02-11T00:57:30.423Z,85.00
2018-02-11T00:59:57.025Z,85.20
2018-02-11T01:02:24.015Z,85.00
2018-02-11T01:04:50.683Z,85.10
2018-02-11T01:07:17.330Z,84.70
2018-02-11T01:09:44.309Z,85.00
2018-02-11T01:12:11.292Z,84.90
2018-02-11T01:14:37.901Z,85.40
2018-02-11T01:17:04.510Z,85.10
2018-02-11T01:19:31.505Z,85.00
2018-02-11T01:21:58.110Z,84.80
2018-02-11T01:24:24.750Z,84.60
2018-02-11T01:26:51.386Z,84.60
2018-02-11T01:29:17.997Z,84.60
2018-02-11T01:31:44.630Z,84.70
2018-02-11T01:34:11.265Z,84.40
2018-02-11T01:36:37.870Z,84.50
2018-02-11T01:39:04.516Z,84.80
2018-02-11T01:41:31.162Z,84.70
2018-02-11T01:43:57.768Z,84.70
2018-02-11T01:46:24.539Z,84.50
2018-02-11T01:48:51.193Z,84.30
2018-02-11T01:51:17.801Z,84.30
2018-02-11T01:53:44.501Z,84.40
2018-02-11T01:56:11.155Z,84.60
2018-02-11T01:58:37.813Z,84.40
2018-02-11T02:01:04.489Z,84.30
2018-02-11T02:03:31.087Z,83.90
2018-02-11T02:05:57.710Z,83.80
2018-02-11T02:08:34.671Z,83.80
2018-02-11T02:11:01.671Z,84.00
2018-02-11T02:13:28.329Z,84.10
2018-02-11T02:15:54.943Z,84.00
2018-02-11T02:18:21.527Z,84.00
2018-02-11T02:20:48.154Z,83.90
2018-02-11T02:23:15.514Z,83.70
2018-02-11T02:25:42.179Z,83.80
2018-02-11T02:28:08.792Z,83.80
2018-02-11T02:30:35.942Z,84.20
2018-02-11T02:33:02.935Z,84.10
2018-02-11T02:35:29.542Z,83.70
2018-02-11T02:37:56.220Z,83.70
2018-02-11T02:40:22.812Z,83.60
2018-02-11T02:42:49.423Z,83.60
2018-02-11T02:45:16.069Z,83.60
2018-02-11T02:47:42.689Z,83.70
2018-02-11T02:50:09.357Z,83.60
2018-02-11T02:52:37.397Z,83.60
2018-02-11T02:55:04.006Z,83.70
2018-02-11T02:57:30.678Z,83.80
2018-02-11T02:59:57.319Z,84.30
2018-02-11T03:02:27.800Z,83.50
2018-02-11T03:04:54.813Z,83.70
2018-02-11T03:07:21.817Z,83.70
2018-02-11T03:09:55.068Z,84.00
2018-02-11T03:12:21.746Z,84.10
2018-02-11T03:14:48.368Z,83.80
2018-02-11T03:17:15.377Z,84.00
2018-02-11T03:19:42.424Z,84.00
2018-02-11T03:22:09.094Z,84.10
2018-02-11T03:24:35.815Z,84.80
2018-02-11T03:27:02.445Z,84.70
2018-02-11T03:29:29.447Z,85.10
2018-02-11T03:31:56.086Z,85.30
2018-02-11T03:34:22.712Z,84.50
2018-02-11T03:36:49.382Z,84.50
2018-02-11T03:39:16.032Z,85.00
2018-02-11T03:41:42.622Z,84.90
2018-02-11T03:44:09.268Z,85.60
2018-02-11T03:46:35.903Z,85.30
2018-02-11T03:49:09.508Z,85.40
2018-02-11T03:51:36.261Z,85.40
2018-02-11T03:54:02.893Z,85.40
2018-02-11T03:56:29.530Z,85.30
2018-02-11T03:58:56.084Z,85.70
2018-02-11T04:01:22.697Z,85.90
2018-02-11T04:03:49.618Z,85.80
2018-02-11T04:06:16.236Z,86.00
2018-02-11T04:08:43.239Z,85.90
2018-02-11T04:11:09.869Z,86.00
2018-02-11T04:13:36.488Z,86.40
2018-02-11T04:16:03.078Z,86.30
2018-02-11T04:18:29.763Z,86.20
2018-02-11T04:20:56.350Z,86.00
2018-02-11T04:23:22.974Z,86.20
2018-02-11T04:25:49.960Z,86.30
2018-02-11T04:28:16.967Z,86.00
2018-02-11T04:30:43.567Z,86.40
2018-02-11T04:33:10.267Z,86.20
2018-02-11T04:35:36.901Z,86.00
2018-02-11T04:38:03.507Z,86.80
2018-02-11T04:40:30.483Z,86.80
2018-02-11T04:42:57.111Z,86.80
2018-02-11T04:45:23.694Z,86.80
2018-02-11T04:47:50.350Z,86.30
2018-02-11T04:50:16.971Z,86.40
2018-02-11T04:52:45.545Z,86.40
2018-02-11T04:55:12.575Z,86.40
2018-02-11T04:57:40.172Z,86.50
2018-02-11T05:00:06.756Z,86.60
2018-02-11T05:02:46.970Z,86.80
2018-02-11T05:05:13.555Z,87.00
2018-02-11T05:07:40.136Z,86.70
2018-02-11T05:10:06.772Z,87.00
2018-02-11T05:12:33.465Z,86.90
2018-02-11T05:15:00.058Z,87.00
2018-02-11T05:17:26.663Z,87.20
2018-02-11T05:19:53.666Z,87.50
2018-02-11T05:22:20.332Z,87.40
2018-02-11T05:24:46.938Z,87.50
2018-02-11T05:27:15.524Z,87.30
2018-02-11T05:29:42.550Z,87.60
2018-02-11T05:32:09.151Z,87.70
2018-02-11T05:34:35.773Z,87.30
2018-02-11T05:37:02.366Z,87.60
2018-02-11T05:39:28.944Z,87.60
2018-02-11T05:41:55.606Z,87.40
2018-02-11T05:44:34.021Z,87.70
2018-02-11T05:47:01.364Z,87.70
2018-02-11T05:49:27.984Z,87.80
2018-02-11T05:51:54.557Z,87.80
2018-02-11T05:54:21.974Z,87.70
2018-02-11T05:56:48.574Z,88.00
2018-02-11T05:59:15.156Z,88.00
2018-02-11T06:01:41.798Z,88.00
2018-02-11T06:04:08.441Z,88.10
2018-02-11T06:06:35.017Z,88.20
2018-02-11T06:09:01.675Z,88.10
2018-02-11T06:11:28.286Z,88.30
2018-02-11T06:13:55.287Z,87.90
2018-02-11T06:16:21.933Z,88.00
2018-02-11T06:18:48.574Z,88.10
2018-02-11T06:21:15.179Z,88.30
2018-02-11T06:23:49.699Z,88.20
2018-02-11T06:26:16.309Z,88.00
2018-02-11T06:28:43.313Z,88.50
2018-02-11T06:31:09.933Z,88.80
2018-02-11T06:33:36.545Z,88.70
2018-02-11T06:36:03.177Z,88.30
2018-02-11T06:38:29.818Z,88.50
2018-02-11T06:40:56.396Z,88.50
2018-02-11T06:43:23.008Z,88.80
2018-02-11T06:45:49.585Z,88.90
2018-02-11T06:48:29.748Z,88.80
2018-02-11T06:50:56.318Z,88.90
2018-02-11T06:53:22.916Z,89.00
2018-02-11T06:55:49.522Z,88.60
2018-02-11T06:58:16.144Z,88.60
2018-02-11T07:00:43.640Z,88.80
2018-02-11T07:03:10.659Z,88.60
2018-02-11T07:05:37.270Z,89.00
2018-02-11T07:08:03.834Z,89.20
2018-02-11T07:10:31.462Z,89.40
2018-02-11T07:12:59.177Z,89.00
2018-02-11T07:15:25.778Z,88.90
2018-02-11T07:17:52.360Z,89.20
2018-02-11T07:20:19.032Z,89.10
2018-02-11T07:22:51.749Z,89.40
2018-02-11T07:25:18.339Z,89.40
2018-02-11T07:27:45.326Z,89.40
2018-02-11T07:30:11.992Z,90.00
2018-02-11T07:32:39.611Z,89.40
2018-02-11T07:35:11.403Z,89.60
2018-02-11T07:37:37.991Z,89.80
2018-02-11T07:40:05.029Z,89.40
2018-02-11T07:42:32.079Z,89.60
2018-02-11T07:44:59.052Z,90.10
2018-02-11T07:47:26.829Z,89.80
2018-02-11T07:49:53.499Z,89.50
2018-02-11T07:52:20.107Z,89.80
2018-02-11T07:54:46.712Z,90.10
2018-02-11T07:57:13.762Z,89.60
2018-02-11T07:59:40.776Z,89.60
2018-02-11T08:02:11.575Z,90.30
2018-02-11T08:04:38.211Z,90.40
2018-02-11T08:07:04.813Z,90.00
2018-02-11T08:09:32.824Z,89.70
2018-02-11T08:11:59.509Z,90.30
2018-02-11T08:14:26.083Z,90.00
2018-02-11T08:16:52.711Z,89.80
2018-02-11T08:19:19.357Z,90.00
2018-02-11T08:21:45.949Z,90.20
2018-02-11T08:24:12.996Z,90.00
2018-02-11T08:26:39.938Z,90.30
2018-02-11T08:29:06.551Z,90.50
2018-02-11T08:31:34.191Z,90.30
2018-02-11T08:34:00.878Z,90.20
2018-02-11T08:36:27.508Z,90.30
2018-02-11T08:39:01.649Z,90.60
2018-02-11T08:41:28.243Z,90.60
2018-02-11T08:43:54.860Z,90.40
2018-02-11T08:46:21.520Z,90.10
2018-02-11T08:48:48.087Z,90.20
2018-02-11T08:51:14.690Z,90.40
2018-02-11T08:53:42.347Z,90.50
2018-02-11T08:56:08.916Z,90.70
2018-02-11T08:58:35.547Z,90.70
2018-02-11T09:01:02.164Z,90.80
2018-02-11T09:03:28.851Z,90.40
2018-02-11T09:05:55.517Z,90.60
2018-02-11T09:08:22.122Z,90.80
2018-02-11T09:10:53.923Z,91.10
2018-02-11T09:13:20.880Z,91.10
2018-02-11T09:15:47.503Z,91.00
2018-02-11T09:18:14.106Z,90.90
2018-02-11T09:20:40.710Z,91.50
2018-02-11T09:23:07.315Z,91.30
2018-02-11T09:25:34.390Z,91.30
2018-02-11T09:28:00.990Z,91.00
2018-02-11T09:30:34.894Z,90.70
2018-02-11T09:33:02.019Z,91.20
2018-02-11T09:35:28.600Z,91.20
2018-02-11T09:37:55.191Z,91.30
2018-02-11T09:40:21.926Z,91.50
2018-02-11T09:42:48.588Z,91.40
2018-02-11T09:45:23.877Z,91.40
2018-02-11T09:47:50.528Z,91.60
2018-02-11T09:50:17.157Z,92.10
2018-02-11T09:52:43.767Z,92.10
2018-02-11T09:55:10.756Z,91.60
2018-02-11T09:57:37.322Z,91.50
2018-02-11T10:00:04.405Z,91.90
2018-02-11T10:02:31.053Z,91.50
2018-02-11T10:04:57.737Z,91.20
2018-02-11T10:07:24.335Z,91.20
2018-02-11T10:09:50.934Z,91.40
2018-02-11T10:12:17.962Z,91.30
2018-02-11T10:14:44.907Z,91.30
2018-02-11T10:17:11.500Z,91.50
2018-02-11T10:19:40.141Z,91.20
2018-02-11T10:22:07.181Z,91.50
2018-02-11T10:24:39.924Z,91.50
2018-02-11T10:27:06.884Z,91.40
2018-02-11T10:29:33.474Z,91.40
2018-02-11T10:32:13.629Z,91.50
2018-02-11T10:34:40.245Z,91.30
2018-02-11T10:37:25.058Z,91.30
2018-02-11T10:39:51.655Z,91.20
2018-02-11T10:42:18.256Z,91.00
2018-02-11T10:44:44.902Z,91.10
2018-02-11T10:47:11.543Z,90.90
2018-02-11T10:49:38.181Z,90.90
2018-02-11T10:52:10.121Z,91.00
2018-02-11T10:54:36.721Z,91.00
2018-02-11T10:57:03.339Z,91.30
2018-02-11T10:59:30.670Z,91.00
2018-02-11T11:01:57.297Z,90.70
2018-02-11T11:04:32.193Z,90.70
2018-02-11T11:10:03.273Z,91.10
2018-02-11T11:12:29.916Z,91.40
2018-02-11T11:14:56.554Z,91.40
2018-02-11T11:17:23.270Z,91.30
2018-02-11T11:19:51.839Z,91.00
2018-02-11T11:22:18.461Z,91.30
2018-02-11T11:24:45.851Z,91.20
2018-02-11T11:27:12.500Z,90.90
2018-02-11T11:29:39.085Z,91.00
2018-02-11T11:32:05.699Z,91.20
2018-02-11T11:34:34.338Z,91.30
2018-02-11T11:37:00.917Z,91.20
2018-02-11T11:39:27.575Z,91.80
2018-02-11T11:41:54.275Z,92.20
2018-02-11T11:44:20.914Z,93.10
2018-02-11T11:46:59.339Z,92.80
2018-02-11T11:49:25.983Z,93.40
2018-02-11T11:52:05.811Z,93.00
2018-02-11T11:54:32.396Z,92.60
2018-02-11T11:56:59.053Z,91.80
2018-02-11T11:59:26.441Z,91.60
2018-02-11T12:01:53.081Z,91.50
2018-02-11T12:04:29.719Z,91.10
2018-02-11T12:06:56.797Z,91.10
2018-02-11T12:09:23.502Z,91.00
2018-02-11T12:11:50.569Z,90.90
2018-02-11T12:14:20.737Z,90.80
2018-02-11T12:16:47.395Z,90.80
2018-02-11T12:19:13.989Z,90.80
2018-02-11T12:24:41.997Z,90.40
2018-02-11T12:27:08.652Z,91.10
2018-02-11T12:29:35.377Z,90.80
2018-02-11T12:32:01.998Z,90.80
2018-02-11T12:34:28.592Z,91.40
2018-02-11T12:36:59.107Z,91.20
2018-02-11T12:39:26.160Z,89.90
2018-02-11T12:41:52.793Z,91.10
2018-02-11T12:44:19.456Z,91.70
2018-02-11T12:46:46.179Z,91.00
2018-02-11T12:49:13.180Z,90.90
2018-02-11T12:51:40.751Z,91.00
2018-02-11T12:54:07.361Z,90.80
2018-02-11T12:56:53.801Z,90.00
2018-02-11T12:59:20.433Z,89.30
2018-02-11T13:01:47.100Z,89.40
2018-02-11T13:04:14.122Z,88.40
2018-02-11T13:06:40.787Z,87.30
2018-02-11T13:09:20.078Z,86.90
2018-02-11T13:11:46.714Z,86.50
2018-02-11T13:14:14.321Z,87.60
2018-02-11T13:16:40.949Z,88.30
2018-02-11T13:19:07.559Z,86.90
2018-02-11T13:21:34.266Z,86.60
2018-02-11T13:24:00.869Z,87.00
2018-02-11T13:26:27.906Z,85.80
2018-02-11T13:28:54.536Z,85.30
2018-02-11T13:31:21.204Z,84.00
2018-02-11T13:33:48.195Z,84.70
2018-02-11T13:36:14.863Z,84.60
2018-02-11T13:38:41.470Z,85.10
2018-02-11T13:41:08.073Z,84.90
2018-02-11T13:43:35.601Z,84.30
2018-02-11T13:46:02.202Z,83.30
2018-02-11T13:48:32.826Z,83.50
2018-02-11T13:50:59.443Z,82.80
2018-02-11T13:53:26.062Z,82.60
2018-02-11T13:55:53.365Z,82.70
2018-02-11T13:58:19.973Z,82.80
2018-02-11T14:00:46.541Z,82.50
2018-02-11T14:03:18.637Z,82.70
2018-02-11T14:05:45.279Z,82.50
2018-02-11T14:08:26.656Z,82.40
2018-02-11T14:10:53.252Z,81.80
2018-02-11T14:13:19.898Z,81.50
2018-02-11T14:15:47.002Z,81.60
2018-02-11T14:18:13.978Z,81.20
2018-02-11T14:20:40.643Z,81.40
2018-02-11T14:23:11.832Z,81.50
2018-02-11T14:25:38.889Z,81.50
2018-02-11T14:28:05.669Z,81.20
2018-02-11T14:30:32.295Z,81.40
2018-02-11T14:33:19.769Z,81.70
2018-02-11T14:35:46.763Z,82.00
2018-02-11T14:38:14.334Z,80.50
2018-02-11T14:40:41.004Z,81.10
2018-02-11T14:43:07.662Z,80.90
2018-02-11T14:45:34.302Z,80.80
2018-02-11T14:48:01.899Z,80.30
2018-02-11T14:50:36.675Z,80.10
2018-02-11T14:53:03.354Z,79.70
2018-02-11T14:55:30.361Z,79.50
2018-02-11T14:57:57.001Z,79.50
2018-02-11T15:00:27.827Z,79.60
2018-02-11T15:02:55.199Z,78.70
2018-02-11T15:05:21.874Z,78.30
2018-02-11T15:07:48.450Z,78.70
2018-02-11T15:10:15.111Z,79.00
2018-02-11T15:44:24.764Z,78.30
2018-02-11T15:46:51.738Z,78.00
2018-02-11T15:49:24.409Z,78.40
2018-02-11T15:51:52.461Z,78.10
2018-02-11T15:57:19.239Z,78.30
2018-02-11T15:59:56.009Z,78.00
2018-02-11T16:02:22.688Z,77.80
2018-02-11T16:04:49.261Z,77.70
2018-02-11T16:07:15.830Z,77.60
2018-02-11T16:09:42.489Z,77.30
2018-02-11T16:12:13.139Z,78.30
2018-02-11T16:14:45.130Z,78.50
2018-02-11T16:17:11.739Z,78.40
2018-02-11T16:19:38.314Z,78.20
2018-02-11T16:22:16.883Z,78.00
2018-02-11T16:24:44.152Z,77.90
2018-02-11T16:27:15.159Z,77.80
2018-02-11T16:29:42.291Z,77.70
2018-02-11T16:32:08.894Z,78.00
2018-02-11T16:34:35.470Z,78.30
2018-02-11T16:37:02.098Z,78.40
2018-02-11T16:39:28.723Z,78.80
2018-02-11T16:41:55.618Z,79.20
2018-02-11T16:44:22.294Z,79.60
2018-02-11T16:46:49.909Z,79.80
2018-02-11T16:49:17.012Z,80.40
2018-02-11T16:51:43.607Z,80.40
2018-02-11T16:54:10.198Z,80.60
2018-02-11T16:56:36.824Z,80.40
2018-02-11T16:59:03.436Z,80.70
2018-02-11T17:01:30.250Z,81.00
2018-02-11T17:03:57.583Z,80.90
2018-02-11T17:06:31.685Z,81.30
2018-02-11T17:09:00.770Z,81.10
2018-02-11T17:11:27.688Z,80.90
2018-02-11T17:13:54.329Z,81.30
2018-02-11T17:16:21.202Z,81.50
2018-02-11T17:18:47.872Z,81.70
2018-02-11T17:21:14.468Z,81.00
2018-02-11T17:23:41.531Z,81.20
2018-02-11T17:26:08.161Z,81.10
2018-02-11T17:28:34.769Z,81.10
2018-02-11T17:31:01.472Z,81.30
2018-02-11T17:33:32.814Z,81.30
2018-02-11T17:35:59.804Z,81.10
2018-02-11T17:38:31.555Z,81.10
2018-02-11T17:40:58.192Z,81.10
2018-02-11T17:43:24.838Z,81.10
2018-02-11T17:45:53.442Z,81.50
2018-02-11T17:48:20.100Z,81.40
2018-02-11T17:50:55.580Z,81.60
2018-02-11T17:53:22.189Z,81.30
2018-02-11T17:55:48.819Z,81.10
2018-02-11T17:58:15.477Z,80.70
2018-02-11T18:00:42.581Z,81.20
2018-02-11T18:03:09.165Z,81.10
2018-02-11T18:05:36.224Z,81.10
2018-02-11T18:08:02.867Z,81.30
2018-02-11T18:10:29.452Z,80.90
2018-02-11T18:12:59.641Z,81.50
2018-02-11T18:15:26.207Z,81.10
2018-02-11T18:17:52.806Z,81.40
2018-02-11T18:20:19.511Z,81.50
2018-02-11T18:22:46.068Z,81.40
2018-02-11T18:25:12.679Z,81.70
2018-02-11T18:27:41.351Z,81.40
2018-02-11T18:30:09.969Z,81.60
2018-02-11T18:32:36.922Z,81.70
2018-02-11T18:35:07.049Z,81.90
2018-02-11T18:37:33.668Z,82.10
2018-02-11T18:40:00.684Z,82.60
2018-02-11T18:42:27.717Z,82.20
2018-02-11T18:44:54.382Z,82.20
2018-02-11T18:47:20.958Z,82.00
2018-02-11T18:49:47.614Z,82.10
2018-02-11T18:52:14.241Z,82.40
2018-02-11T18:54:40.843Z,82.10
2018-02-11T18:57:18.167Z,82.40
2018-02-11T18:59:44.742Z,82.60
2018-02-11T19:02:11.328Z,82.60
2018-02-11T19:04:38.736Z,82.40
2018-02-11T19:07:05.336Z,82.60
2018-02-11T19:09:32.879Z,82.50
2018-02-11T19:11:59.917Z,82.60
2018-02-11T19:14:41.665Z,82.80
2018-02-11T19:17:08.334Z,82.60
2018-02-11T19:19:35.033Z,82.50
2018-02-11T19:22:02.631Z,82.70
2018-02-11T19:24:29.633Z,82.90
2018-02-11T19:27:00.181Z,83.00
2018-02-11T19:29:26.809Z,82.90
2018-02-11T19:31:53.492Z,83.30
2018-02-11T19:34:20.473Z,83.10
2018-02-11T19:37:06.742Z,83.20
2018-02-11T19:39:33.893Z,83.20
2018-02-11T19:42:13.504Z,83.50
2018-02-11T19:44:44.604Z,83.70
2018-02-11T19:47:11.448Z,83.70
2018-02-11T19:49:38.105Z,83.60
2018-02-11T19:54:57.259Z,83.30
2018-02-11T19:57:24.031Z,83.40
2018-02-11T19:59:50.720Z,83.70
2018-02-11T20:02:22.179Z,83.60
2018-02-11T20:04:56.486Z,84.10
2018-02-11T20:07:28.369Z,83.90
2018-02-11T20:09:59.946Z,84.00
2018-02-11T20:12:32.664Z,83.90
2018-02-11T20:15:01.509Z,84.20
2018-02-11T20:17:28.274Z,83.80
2018-02-11T20:19:55.052Z,84.10
2018-02-11T20:22:26.099Z,84.20
2018-02-11T20:24:53.191Z,84.20
2018-02-11T20:27:32.688Z,84.50
2018-02-11T20:29:59.690Z,84.40
2018-02-11T20:32:26.407Z,83.90
2018-02-11T20:34:53.331Z,84.50
2018-02-11T20:37:20.450Z,84.70
2018-02-11T20:39:52.727Z,84.70
2018-02-11T20:42:22.445Z,84.50
2018-02-11T20:44:49.492Z,84.50
2018-02-11T20:47:16.181Z,85.00
2018-02-11T20:49:43.108Z,84.80
2018-02-11T20:52:09.871Z,85.30
2018-02-11T20:54:37.168Z,84.90
2018-02-11T20:57:03.843Z,84.80
2018-02-11T20:59:54.051Z,84.80
2018-02-11T21:02:20.755Z,85.10
2018-02-11T21:04:47.853Z,85.30
2018-02-11T21:07:14.730Z,85.10
2018-02-11T21:09:49.288Z,84.90
2018-02-11T21:12:16.404Z,84.40
2018-02-11T21:14:43.125Z,84.60
2018-02-11T21:17:09.751Z,85.20
2018-02-11T21:19:36.408Z,85.50
2018-02-11T21:22:03.128Z,84.80
2018-02-11T21:24:32.926Z,85.60
2018-02-11T21:26:59.736Z,85.60
2018-02-11T21:29:26.371Z,85.20
2018-02-11T21:32:00.224Z,85.10
2018-02-11T21:37:20.666Z,85.30
2018-02-11T21:39:47.403Z,85.30
2018-02-11T21:42:14.558Z,85.70
2018-02-11T21:44:55.915Z,85.10
2018-02-11T21:47:23.067Z,85.50
2018-02-11T21:49:49.789Z,85.60
2018-02-11T21:58:05.380Z,85.50
2018-02-11T22:00:32.031Z,85.60
2018-02-11T22:02:58.780Z,85.50
2018-02-11T22:05:25.505Z,85.50
2018-02-11T22:07:52.543Z,85.20
2018-02-11T22:10:19.617Z,85.60
2018-02-11T22:12:46.362Z,86.10
2018-02-11T22:15:13.062Z,85.90
2018-02-11T22:17:40.263Z,85.70
2018-02-11T22:20:06.962Z,85.30
2018-02-11T22:22:34.080Z,86.00
2018-02-11T22:25:00.687Z,85.80
2018-02-11T22:27:27.309Z,85.80
2018-02-11T22:29:54.059Z,85.90
2018-02-11T22:32:22.861Z,86.10
2018-02-11T22:34:49.645Z,85.80
2018-02-11T22:37:16.376Z,85.80
2018-02-11T22:39:43.112Z,86.00
2018-02-11T22:42:15.295Z,86.20
2018-02-11T22:44:42.422Z,86.10
2018-02-11T22:47:09.204Z,86.40
2018-02-11T22:49:35.887Z,86.50
2018-02-11T22:52:02.569Z,86.40
2018-02-11T22:54:29.750Z,86.60
2018-02-11T22:56:56.783Z,86.40
2018-02-11T22:59:23.418Z,86.50
2018-02-11T23:01:50.046Z,86.70
2018-02-11T23:04:17.205Z,86.70
2018-02-11T23:06:44.911Z,86.60
2018-02-11T23:09:18.032Z,86.50
2018-02-11T23:11:44.675Z,86.90
2018-02-11T23:14:23.531Z,86.60
2018-02-11T23:16:50.155Z,86.80
2018-02-11T23:19:24.866Z,87.00
2018-02-11T23:21:51.841Z,86.80
2018-02-11T23:24:18.447Z,86.70
2018-02-11T23:26:45.556Z,87.00
2018-02-11T23:29:12.141Z,86.70
2018-02-11T23:31:39.158Z,86.60
2018-02-11T23:34:05.814Z,86.60
2018-02-11T23:36:32.404Z,86.80
2018-02-11T23:38:59.002Z,86.70
2018-02-11T23:41:26.021Z,86.90
2018-02-11T23:43:56.669Z,87.00
2018-02-11T23:46:23.271Z,87.30
2018-02-11T23:48:56.379Z,87.50
2018-02-11T23:51:22.940Z,87.20
2018-02-11T23:53:49.940Z,87.30
2018-02-11T23:56:16.621Z,87.60
2018-02-11T23:58:43.258Z,87.30
